sensor_id;sensor_type;location;lat;lon;timestamp;temperature;humidity
4505;DHT22;2265;48.794;9.520;2023-01-05T00:01:30;11.40;98.00
4505;DHT22;2265;48.794;9.520;2023-01-05T00:03:59;11.40;98.00
4505;DHT22;2265;48.794;9.520;2023-01-05T00:06:26;11.40;98.00
4505;DHT22;2265;48.794;9.520;2023-01-05T00:08:54;11.40;98.00
4505;DHT22;2265;48.794;9.520;2023-01-05T00:11:23;11.40;98.00
4505;DHT22;2265;48.794;9.520;2023-01-05T00:14:11;11.40;98.00
4505;DHT22;2265;48.794;9.520;2023-01-05T00:16:56;11.40;98.00
4505;DHT22;2265;48.794;9.520;2023-01-05T00:19:41;11.40;98.00
4505;DHT22;2265;48.794;9.520;2023-01-05T00:22:27;11.40;98.00
4505;DHT22;2265;48.794;9.520;2023-01-05T00:25:02;11.50;98.00
4505;DHT22;2265;48.794;9.520;2023-01-05T00:27:30;11.50;98.00
4505;DHT22;2265;48.794;9.520;2023-01-05T00:29:58;11.50;98.00
4505;DHT22;2265;48.794;9.520;2023-01-05T00:32:27;11.50;98.00
4505;DHT22;2265;48.794;9.520;2023-01-05T00:34:54;11.60;98.00
4505;DHT22;2265;48.794;9.520;2023-01-05T00:37:22;11.60;98.00
4505;DHT22;2265;48.794;9.520;2023-01-05T00:39:50;11.70;98.00
4505;DHT22;2265;48.794;9.520;2023-01-05T00:42:19;11.70;98.00
4505;DHT22;2265;48.794;9.520;2023-01-05T00:44:46;11.70;98.00
4505;DHT22;2265;48.794;9.520;2023-01-05T00:47:13;11.70;98.00
4505;DHT22;2265;48.794;9.520;2023-01-05T00:49:41;11.70;98.00
4505;DHT22;2265;48.794;9.520;2023-01-05T00:52:08;11.70;98.00
4505;DHT22;2265;48.794;9.520;2023-01-05T00:54:35;11.70;98.00
4505;DHT22;2265;48.794;9.520;2023-01-05T00:57:02;11.70;98.00
4505;DHT22;2265;48.794;9.520;2023-01-05T00:59:32;11.70;98.00
4505;DHT22;2265;48.794;9.520;2023-01-05T01:01:59;11.80;98.00
4505;DHT22;2265;48.794;9.520;2023-01-05T01:04:26;11.80;98.00
4505;DHT22;2265;48.794;9.520;2023-01-05T01:06:56;11.80;98.00
4505;DHT22;2265;48.794;9.520;2023-01-05T01:09:23;11.80;98.00
4505;DHT22;2265;48.794;9.520;2023-01-05T01:11:50;11.80;98.00
4505;DHT22;2265;48.794;9.520;2023-01-05T01:14:17;11.80;98.00
4505;DHT22;2265;48.794;9.520;2023-01-05T01:16:47;11.80;98.00
4505;DHT22;2265;48.794;9.520;2023-01-05T01:19:16;11.80;98.00
4505;DHT22;2265;48.794;9.520;2023-01-05T01:21:44;11.80;98.00
4505;DHT22;2265;48.794;9.520;2023-01-05T01:24:14;11.80;98.00
4505;DHT22;2265;48.794;9.520;2023-01-05T01:26:41;11.80;98.00
4505;DHT22;2265;48.794;9.520;2023-01-05T01:29:09;11.80;98.00
4505;DHT22;2265;48.794;9.520;2023-01-05T01:31:36;11.80;98.00
4505;DHT22;2265;48.794;9.520;2023-01-05T01:34:04;11.80;98.00
4505;DHT22;2265;48.794;9.520;2023-01-05T01:36:31;11.80;98.00
4505;DHT22;2265;48.794;9.520;2023-01-05T01:38:58;11.80;98.00
4505;DHT22;2265;48.794;9.520;2023-01-05T01:41:25;11.80;98.00
4505;DHT22;2265;48.794;9.520;2023-01-05T01:43:53;11.80;98.00
4505;DHT22;2265;48.794;9.520;2023-01-05T01:46:21;11.80;98.00
4505;DHT22;2265;48.794;9.520;2023-01-05T01:48:51;11.80;98.00
4505;DHT22;2265;48.794;9.520;2023-01-05T01:51:22;11.90;98.00
4505;DHT22;2265;48.794;9.520;2023-01-05T01:53:53;11.90;98.00
4505;DHT22;2265;48.794;9.520;2023-01-05T01:56:23;11.80;98.00
4505;DHT22;2265;48.794;9.520;2023-01-05T01:58:52;11.90;98.00
4505;DHT22;2265;48.794;9.520;2023-01-05T02:01:19;11.80;98.00
4505;DHT22;2265;48.794;9.520;2023-01-05T02:03:47;11.80;98.00
4505;DHT22;2265;48.794;9.520;2023-01-05T02:06:14;11.80;98.00
4505;DHT22;2265;48.794;9.520;2023-01-05T02:08:43;11.80;98.00
4505;DHT22;2265;48.794;9.520;2023-01-05T02:11:23;11.80;98.00
4505;DHT22;2265;48.794;9.520;2023-01-05T02:14:03;11.80;98.00
4505;DHT22;2265;48.794;9.520;2023-01-05T02:16:42;11.80;98.00
4505;DHT22;2265;48.794;9.520;2023-01-05T02:22:39;11.80;98.00
4505;DHT22;2265;48.794;9.520;2023-01-05T02:25:34;11.80;98.00
4505;DHT22;2265;48.794;9.520;2023-01-05T02:28:13;11.80;98.00
4505;DHT22;2265;48.794;9.520;2023-01-05T02:31:05;11.80;98.00
4505;DHT22;2265;48.794;9.520;2023-01-05T02:33:42;11.80;98.00
4505;DHT22;2265;48.794;9.520;2023-01-05T02:36:26;11.80;98.00
4505;DHT22;2265;48.794;9.520;2023-01-05T02:38:59;11.80;98.00
4505;DHT22;2265;48.794;9.520;2023-01-05T02:41:31;11.70;98.00
4505;DHT22;2265;48.794;9.520;2023-01-05T02:44:00;11.70;98.00
4505;DHT22;2265;48.794;9.520;2023-01-05T02:46:29;11.70;98.00
4505;DHT22;2265;48.794;9.520;2023-01-05T02:48:57;11.70;98.00
4505;DHT22;2265;48.794;9.520;2023-01-05T02:51:29;11.70;98.00
4505;DHT22;2265;48.794;9.520;2023-01-05T02:54:01;11.70;98.00
4505;DHT22;2265;48.794;9.520;2023-01-05T02:56:36;11.70;98.00
4505;DHT22;2265;48.794;9.520;2023-01-05T02:59:10;11.70;98.00
4505;DHT22;2265;48.794;9.520;2023-01-05T03:01:42;11.70;98.00
4505;DHT22;2265;48.794;9.520;2023-01-05T03:04:16;11.70;98.00
4505;DHT22;2265;48.794;9.520;2023-01-05T03:06:48;11.70;98.00
4505;DHT22;2265;48.794;9.520;2023-01-05T03:09:23;11.70;98.00
4505;DHT22;2265;48.794;9.520;2023-01-05T03:11:57;11.70;98.00
4505;DHT22;2265;48.794;9.520;2023-01-05T03:14:46;11.70;98.00
4505;DHT22;2265;48.794;9.520;2023-01-05T03:17:21;11.70;98.00
4505;DHT22;2265;48.794;9.520;2023-01-05T03:19:50;11.60;98.00
4505;DHT22;2265;48.794;9.520;2023-01-05T03:22:21;11.60;98.00
4505;DHT22;2265;48.794;9.520;2023-01-05T03:25:08;11.60;98.00
4505;DHT22;2265;48.794;9.520;2023-01-05T03:27:53;11.70;98.00
4505;DHT22;2265;48.794;9.520;2023-01-05T03:30:42;11.70;98.00
4505;DHT22;2265;48.794;9.520;2023-01-05T03:33:38;11.70;98.00
4505;DHT22;2265;48.794;9.520;2023-01-05T03:36:27;11.70;98.00
4505;DHT22;2265;48.794;9.520;2023-01-05T03:39:00;11.70;98.00
4505;DHT22;2265;48.794;9.520;2023-01-05T03:41:29;11.70;98.00
4505;DHT22;2265;48.794;9.520;2023-01-05T03:43:57;11.70;98.00
4505;DHT22;2265;48.794;9.520;2023-01-05T03:46:24;11.70;98.00
4505;DHT22;2265;48.794;9.520;2023-01-05T03:48:52;11.70;98.00
4505;DHT22;2265;48.794;9.520;2023-01-05T03:51:19;11.70;98.00
4505;DHT22;2265;48.794;9.520;2023-01-05T03:53:46;11.70;98.00
4505;DHT22;2265;48.794;9.520;2023-01-05T03:56:13;11.70;98.00
4505;DHT22;2265;48.794;9.520;2023-01-05T03:58:40;11.70;98.00
4505;DHT22;2265;48.794;9.520;2023-01-05T04:01:07;11.70;98.00
4505;DHT22;2265;48.794;9.520;2023-01-05T04:03:35;11.70;98.00
4505;DHT22;2265;48.794;9.520;2023-01-05T04:06:06;11.80;98.00
4505;DHT22;2265;48.794;9.520;2023-01-05T04:08:36;11.70;98.00
4505;DHT22;2265;48.794;9.520;2023-01-05T04:11:16;11.70;98.00
4505;DHT22;2265;48.794;9.520;2023-01-05T04:13:44;11.60;98.00
4505;DHT22;2265;48.794;9.520;2023-01-05T04:16:11;11.60;98.00
4505;DHT22;2265;48.794;9.520;2023-01-05T04:18:39;11.60;98.00
4505;DHT22;2265;48.794;9.520;2023-01-05T04:21:07;11.60;98.00
4505;DHT22;2265;48.794;9.520;2023-01-05T04:23:35;11.60;98.00
4505;DHT22;2265;48.794;9.520;2023-01-05T04:26:02;11.50;98.00
4505;DHT22;2265;48.794;9.520;2023-01-05T04:28:30;11.50;98.00
4505;DHT22;2265;48.794;9.520;2023-01-05T04:30:57;11.50;98.00
4505;DHT22;2265;48.794;9.520;2023-01-05T04:33:25;11.40;98.00
4505;DHT22;2265;48.794;9.520;2023-01-05T04:35:52;11.40;98.00
4505;DHT22;2265;48.794;9.520;2023-01-05T04:38:20;11.40;98.00
4505;DHT22;2265;48.794;9.520;2023-01-05T04:40:48;11.50;98.00
4505;DHT22;2265;48.794;9.520;2023-01-05T04:43:15;11.40;98.00
4505;DHT22;2265;48.794;9.520;2023-01-05T04:45:45;11.40;98.00
4505;DHT22;2265;48.794;9.520;2023-01-05T04:48:12;11.30;98.00
4505;DHT22;2265;48.794;9.520;2023-01-05T04:50:39;11.30;98.00
4505;DHT22;2265;48.794;9.520;2023-01-05T04:53:07;11.30;98.00
4505;DHT22;2265;48.794;9.520;2023-01-05T04:55:35;11.20;98.00
4505;DHT22;2265;48.794;9.520;2023-01-05T04:58:02;11.20;98.00
4505;DHT22;2265;48.794;9.520;2023-01-05T05:00:29;11.30;98.00
4505;DHT22;2265;48.794;9.520;2023-01-05T05:02:57;11.30;98.00
4505;DHT22;2265;48.794;9.520;2023-01-05T05:05:24;11.30;98.00
4505;DHT22;2265;48.794;9.520;2023-01-05T05:07:51;11.30;98.00
4505;DHT22;2265;48.794;9.520;2023-01-05T05:10:18;11.30;98.00
4505;DHT22;2265;48.794;9.520;2023-01-05T05:12:46;11.30;98.00
4505;DHT22;2265;48.794;9.520;2023-01-05T05:15:14;11.20;98.00
4505;DHT22;2265;48.794;9.520;2023-01-05T05:17:41;11.20;98.00
4505;DHT22;2265;48.794;9.520;2023-01-05T05:20:09;11.20;98.00
4505;DHT22;2265;48.794;9.520;2023-01-05T05:22:36;11.20;98.00
4505;DHT22;2265;48.794;9.520;2023-01-05T05:25:04;11.20;98.00
4505;DHT22;2265;48.794;9.520;2023-01-05T05:27:32;11.10;98.00
4505;DHT22;2265;48.794;9.520;2023-01-05T05:30:00;11.10;98.00
4505;DHT22;2265;48.794;9.520;2023-01-05T05:32:27;11.20;98.00
4505;DHT22;2265;48.794;9.520;2023-01-05T05:34:55;11.30;98.00
4505;DHT22;2265;48.794;9.520;2023-01-05T05:37:22;11.30;98.00
4505;DHT22;2265;48.794;9.520;2023-01-05T05:39:49;11.40;98.00
4505;DHT22;2265;48.794;9.520;2023-01-05T05:42:16;11.40;98.00
4505;DHT22;2265;48.794;9.520;2023-01-05T05:44:43;11.40;98.00
4505;DHT22;2265;48.794;9.520;2023-01-05T05:47:11;11.40;98.00
4505;DHT22;2265;48.794;9.520;2023-01-05T05:49:38;11.20;98.00
4505;DHT22;2265;48.794;9.520;2023-01-05T05:52:05;11.10;98.00
4505;DHT22;2265;48.794;9.520;2023-01-05T05:54:33;11.00;98.00
4505;DHT22;2265;48.794;9.520;2023-01-05T05:57:00;11.00;98.00
4505;DHT22;2265;48.794;9.520;2023-01-05T05:59:27;10.90;98.00
4505;DHT22;2265;48.794;9.520;2023-01-05T06:01:54;10.90;98.00
4505;DHT22;2265;48.794;9.520;2023-01-05T06:04:22;10.90;98.00
4505;DHT22;2265;48.794;9.520;2023-01-05T06:06:49;10.90;98.00
4505;DHT22;2265;48.794;9.520;2023-01-05T06:09:16;10.90;98.00
4505;DHT22;2265;48.794;9.520;2023-01-05T06:11:44;10.90;98.00
4505;DHT22;2265;48.794;9.520;2023-01-05T06:14:12;10.90;98.00
4505;DHT22;2265;48.794;9.520;2023-01-05T06:16:39;11.00;98.00
4505;DHT22;2265;48.794;9.520;2023-01-05T06:19:06;11.00;98.00
4505;DHT22;2265;48.794;9.520;2023-01-05T06:21:34;11.10;98.00
4505;DHT22;2265;48.794;9.520;2023-01-05T06:24:01;11.10;98.00
4505;DHT22;2265;48.794;9.520;2023-01-05T06:26:28;11.10;98.00
4505;DHT22;2265;48.794;9.520;2023-01-05T06:28:55;11.20;98.00
4505;DHT22;2265;48.794;9.520;2023-01-05T06:31:22;11.20;98.00
4505;DHT22;2265;48.794;9.520;2023-01-05T06:33:49;11.20;98.00
4505;DHT22;2265;48.794;9.520;2023-01-05T06:36:16;11.20;98.00
4505;DHT22;2265;48.794;9.520;2023-01-05T06:38:45;11.20;98.00
4505;DHT22;2265;48.794;9.520;2023-01-05T06:41:12;11.20;98.00
4505;DHT22;2265;48.794;9.520;2023-01-05T06:43:39;11.20;98.00
4505;DHT22;2265;48.794;9.520;2023-01-05T06:46:06;11.20;98.00
4505;DHT22;2265;48.794;9.520;2023-01-05T06:48:33;11.20;98.00
4505;DHT22;2265;48.794;9.520;2023-01-05T06:51:00;11.20;98.00
4505;DHT22;2265;48.794;9.520;2023-01-05T06:53:27;11.10;98.00
4505;DHT22;2265;48.794;9.520;2023-01-05T06:55:56;11.00;98.00
4505;DHT22;2265;48.794;9.520;2023-01-05T06:58:23;11.00;98.00
4505;DHT22;2265;48.794;9.520;2023-01-05T07:00:52;11.00;98.00
4505;DHT22;2265;48.794;9.520;2023-01-05T07:03:20;10.90;98.00
4505;DHT22;2265;48.794;9.520;2023-01-05T07:05:48;10.80;98.00
4505;DHT22;2265;48.794;9.520;2023-01-05T07:08:15;10.70;98.00
4505;DHT22;2265;48.794;9.520;2023-01-05T07:10:42;10.70;98.00
4505;DHT22;2265;48.794;9.520;2023-01-05T07:13:11;10.70;98.00
4505;DHT22;2265;48.794;9.520;2023-01-05T07:15:39;10.70;98.00
4505;DHT22;2265;48.794;9.520;2023-01-05T07:18:06;10.60;98.00
4505;DHT22;2265;48.794;9.520;2023-01-05T07:20:33;10.70;98.00
4505;DHT22;2265;48.794;9.520;2023-01-05T07:23:00;10.70;98.00
4505;DHT22;2265;48.794;9.520;2023-01-05T07:25:27;10.60;98.00
4505;DHT22;2265;48.794;9.520;2023-01-05T07:27:56;10.60;98.00
4505;DHT22;2265;48.794;9.520;2023-01-05T07:30:24;10.50;98.00
4505;DHT22;2265;48.794;9.520;2023-01-05T07:32:51;10.60;98.00
4505;DHT22;2265;48.794;9.520;2023-01-05T07:35:18;10.60;98.00
4505;DHT22;2265;48.794;9.520;2023-01-05T07:37:45;10.60;98.00
4505;DHT22;2265;48.794;9.520;2023-01-05T07:40:12;10.60;98.00
4505;DHT22;2265;48.794;9.520;2023-01-05T07:42:40;10.50;98.00
4505;DHT22;2265;48.794;9.520;2023-01-05T07:45:08;10.50;98.00
4505;DHT22;2265;48.794;9.520;2023-01-05T07:47:39;10.60;98.00
4505;DHT22;2265;48.794;9.520;2023-01-05T07:50:06;10.60;98.00
4505;DHT22;2265;48.794;9.520;2023-01-05T07:52:34;10.70;98.00
4505;DHT22;2265;48.794;9.520;2023-01-05T07:55:01;10.70;98.00
4505;DHT22;2265;48.794;9.520;2023-01-05T07:57:28;10.70;98.00
4505;DHT22;2265;48.794;9.520;2023-01-05T07:59:55;10.70;98.00
4505;DHT22;2265;48.794;9.520;2023-01-05T08:02:22;10.70;98.00
4505;DHT22;2265;48.794;9.520;2023-01-05T08:04:53;10.70;98.00
4505;DHT22;2265;48.794;9.520;2023-01-05T08:07:20;10.70;98.00
4505;DHT22;2265;48.794;9.520;2023-01-05T08:09:47;10.80;98.00
4505;DHT22;2265;48.794;9.520;2023-01-05T08:12:31;10.70;98.00
4505;DHT22;2265;48.794;9.520;2023-01-05T08:15:18;10.70;98.00
4505;DHT22;2265;48.794;9.520;2023-01-05T08:17:45;10.80;98.00
4505;DHT22;2265;48.794;9.520;2023-01-05T08:20:14;10.90;98.00
4505;DHT22;2265;48.794;9.520;2023-01-05T08:22:41;10.90;98.00
4505;DHT22;2265;48.794;9.520;2023-01-05T08:25:17;10.90;98.00
4505;DHT22;2265;48.794;9.520;2023-01-05T08:27:44;10.80;98.00
4505;DHT22;2265;48.794;9.520;2023-01-05T08:30:14;10.90;98.00
4505;DHT22;2265;48.794;9.520;2023-01-05T08:32:41;10.80;98.00
4505;DHT22;2265;48.794;9.520;2023-01-05T08:35:09;10.90;98.00
4505;DHT22;2265;48.794;9.520;2023-01-05T08:37:37;10.90;98.00
4505;DHT22;2265;48.794;9.520;2023-01-05T08:40:06;10.90;98.00
4505;DHT22;2265;48.794;9.520;2023-01-05T08:42:33;11.00;98.00
4505;DHT22;2265;48.794;9.520;2023-01-05T08:45:00;11.00;98.00
4505;DHT22;2265;48.794;9.520;2023-01-05T08:47:28;11.00;98.00
4505;DHT22;2265;48.794;9.520;2023-01-05T08:49:55;11.10;98.00
4505;DHT22;2265;48.794;9.520;2023-01-05T08:52:22;11.10;98.00
4505;DHT22;2265;48.794;9.520;2023-01-05T08:54:50;11.00;98.00
4505;DHT22;2265;48.794;9.520;2023-01-05T08:57:17;11.10;98.00
4505;DHT22;2265;48.794;9.520;2023-01-05T08:59:44;11.10;98.00
4505;DHT22;2265;48.794;9.520;2023-01-05T09:02:11;11.20;98.00
4505;DHT22;2265;48.794;9.520;2023-01-05T09:04:40;11.10;98.00
4505;DHT22;2265;48.794;9.520;2023-01-05T09:07:07;11.20;98.00
4505;DHT22;2265;48.794;9.520;2023-01-05T09:09:34;11.20;98.00
4505;DHT22;2265;48.794;9.520;2023-01-05T09:12:03;11.20;98.00
4505;DHT22;2265;48.794;9.520;2023-01-05T09:14:30;11.20;98.00
4505;DHT22;2265;48.794;9.520;2023-01-05T09:16:58;11.20;98.00
4505;DHT22;2265;48.794;9.520;2023-01-05T09:19:25;11.30;98.00
4505;DHT22;2265;48.794;9.520;2023-01-05T09:21:52;11.20;98.00
4505;DHT22;2265;48.794;9.520;2023-01-05T09:24:19;11.20;98.00
4505;DHT22;2265;48.794;9.520;2023-01-05T09:26:46;11.20;98.00
4505;DHT22;2265;48.794;9.520;2023-01-05T09:29:14;11.20;98.00
4505;DHT22;2265;48.794;9.520;2023-01-05T09:31:41;11.20;98.00
4505;DHT22;2265;48.794;9.520;2023-01-05T09:34:09;11.30;98.00
4505;DHT22;2265;48.794;9.520;2023-01-05T09:36:37;11.30;98.00
4505;DHT22;2265;48.794;9.520;2023-01-05T09:39:06;11.30;98.00
4505;DHT22;2265;48.794;9.520;2023-01-05T09:41:36;11.30;98.00
4505;DHT22;2265;48.794;9.520;2023-01-05T09:44:06;11.30;98.00
4505;DHT22;2265;48.794;9.520;2023-01-05T09:46:41;11.40;98.00
4505;DHT22;2265;48.794;9.520;2023-01-05T09:49:12;11.40;98.00
4505;DHT22;2265;48.794;9.520;2023-01-05T09:51:39;11.50;98.00
4505;DHT22;2265;48.794;9.520;2023-01-05T09:54:13;11.50;98.00
4505;DHT22;2265;48.794;9.520;2023-01-05T09:56:43;11.50;98.00
4505;DHT22;2265;48.794;9.520;2023-01-05T09:59:13;11.50;98.00
4505;DHT22;2265;48.794;9.520;2023-01-05T10:01:45;11.50;98.00
4505;DHT22;2265;48.794;9.520;2023-01-05T10:04:15;11.50;98.00
4505;DHT22;2265;48.794;9.520;2023-01-05T10:06:46;11.60;98.00
4505;DHT22;2265;48.794;9.520;2023-01-05T10:09:19;11.70;98.00
4505;DHT22;2265;48.794;9.520;2023-01-05T10:11:50;11.60;98.00
4505;DHT22;2265;48.794;9.520;2023-01-05T10:14:39;11.60;98.00
4505;DHT22;2265;48.794;9.520;2023-01-05T10:17:13;11.60;98.00
4505;DHT22;2265;48.794;9.520;2023-01-05T10:19:41;11.60;98.00
4505;DHT22;2265;48.794;9.520;2023-01-05T10:22:23;11.60;98.00
4505;DHT22;2265;48.794;9.520;2023-01-05T10:24:58;11.70;98.00
4505;DHT22;2265;48.794;9.520;2023-01-05T10:27:30;11.70;98.00
4505;DHT22;2265;48.794;9.520;2023-01-05T10:30:04;11.70;98.00
4505;DHT22;2265;48.794;9.520;2023-01-05T10:32:45;11.70;98.00
4505;DHT22;2265;48.794;9.520;2023-01-05T10:35:28;11.70;98.00
4505;DHT22;2265;48.794;9.520;2023-01-05T10:38:05;11.70;98.00
4505;DHT22;2265;48.794;9.520;2023-01-05T10:40:46;11.70;98.00
4505;DHT22;2265;48.794;9.520;2023-01-05T10:43:39;11.80;98.00
4505;DHT22;2265;48.794;9.520;2023-01-05T10:46:09;11.70;98.00
4505;DHT22;2265;48.794;9.520;2023-01-05T10:48:39;11.70;98.00
4505;DHT22;2265;48.794;9.520;2023-01-05T10:51:07;11.70;98.00
4505;DHT22;2265;48.794;9.520;2023-01-05T10:53:37;11.70;98.00
4505;DHT22;2265;48.794;9.520;2023-01-05T10:56:10;11.70;98.00
4505;DHT22;2265;48.794;9.520;2023-01-05T10:58:40;11.70;98.00
4505;DHT22;2265;48.794;9.520;2023-01-05T11:01:21;11.70;98.00
4505;DHT22;2265;48.794;9.520;2023-01-05T11:03:55;11.70;98.00
4505;DHT22;2265;48.794;9.520;2023-01-05T11:06:29;11.70;98.00
4505;DHT22;2265;48.794;9.520;2023-01-05T11:09:05;11.80;98.00
4505;DHT22;2265;48.794;9.520;2023-01-05T11:11:37;11.80;98.00
4505;DHT22;2265;48.794;9.520;2023-01-05T11:14:05;11.80;98.00
4505;DHT22;2265;48.794;9.520;2023-01-05T11:16:45;11.80;98.00
4505;DHT22;2265;48.794;9.520;2023-01-05T11:19:16;11.80;98.00
4505;DHT22;2265;48.794;9.520;2023-01-05T11:21:45;11.90;98.00
4505;DHT22;2265;48.794;9.520;2023-01-05T11:24:27;11.90;98.00
4505;DHT22;2265;48.794;9.520;2023-01-05T11:26:55;12.00;98.00
4505;DHT22;2265;48.794;9.520;2023-01-05T11:29:23;12.00;98.00
4505;DHT22;2265;48.794;9.520;2023-01-05T11:31:53;12.00;98.00
4505;DHT22;2265;48.794;9.520;2023-01-05T11:34:34;12.00;98.00
4505;DHT22;2265;48.794;9.520;2023-01-05T11:37:03;12.10;98.00
4505;DHT22;2265;48.794;9.520;2023-01-05T11:39:34;12.10;98.00
4505;DHT22;2265;48.794;9.520;2023-01-05T11:42:12;12.10;98.00
4505;DHT22;2265;48.794;9.520;2023-01-05T11:44:42;12.10;98.00
4505;DHT22;2265;48.794;9.520;2023-01-05T11:47:23;12.10;98.00
4505;DHT22;2265;48.794;9.520;2023-01-05T11:50:03;12.10;98.00
4505;DHT22;2265;48.794;9.520;2023-01-05T11:52:39;12.10;98.00
4505;DHT22;2265;48.794;9.520;2023-01-05T11:55:29;12.10;98.00
4505;DHT22;2265;48.794;9.520;2023-01-05T11:58:11;12.10;98.00
4505;DHT22;2265;48.794;9.520;2023-01-05T12:00:51;12.00;98.00
4505;DHT22;2265;48.794;9.520;2023-01-05T12:03:28;12.10;98.00
4505;DHT22;2265;48.794;9.520;2023-01-05T12:06:01;12.00;98.00
4505;DHT22;2265;48.794;9.520;2023-01-05T12:08:35;12.00;98.00
4505;DHT22;2265;48.794;9.520;2023-01-05T12:11:11;12.00;98.00
4505;DHT22;2265;48.794;9.520;2023-01-05T12:13:53;12.00;98.00
4505;DHT22;2265;48.794;9.520;2023-01-05T12:16:41;12.00;98.00
4505;DHT22;2265;48.794;9.520;2023-01-05T12:19:28;11.90;98.00
4505;DHT22;2265;48.794;9.520;2023-01-05T12:22:33;12.00;98.00
4505;DHT22;2265;48.794;9.520;2023-01-05T12:25:07;12.00;98.00
4505;DHT22;2265;48.794;9.520;2023-01-05T12:27:53;12.00;98.00
4505;DHT22;2265;48.794;9.520;2023-01-05T12:30:26;11.90;98.00
4505;DHT22;2265;48.794;9.520;2023-01-05T12:33:06;11.90;98.00
4505;DHT22;2265;48.794;9.520;2023-01-05T12:38:51;11.90;98.00
4505;DHT22;2265;48.794;9.520;2023-01-05T12:41:38;11.90;98.00
4505;DHT22;2265;48.794;9.520;2023-01-05T12:44:29;11.80;98.00
4505;DHT22;2265;48.794;9.520;2023-01-05T12:47:18;11.80;98.00
4505;DHT22;2265;48.794;9.520;2023-01-05T12:49:51;11.80;98.00
4505;DHT22;2265;48.794;9.520;2023-01-05T12:52:23;11.80;98.00
4505;DHT22;2265;48.794;9.520;2023-01-05T12:55:00;11.80;98.00
4505;DHT22;2265;48.794;9.520;2023-01-05T12:57:32;11.80;98.00
4505;DHT22;2265;48.794;9.520;2023-01-05T13:00:03;11.70;98.00
4505;DHT22;2265;48.794;9.520;2023-01-05T13:02:35;11.70;98.00
4505;DHT22;2265;48.794;9.520;2023-01-05T13:05:06;11.70;98.00
4505;DHT22;2265;48.794;9.520;2023-01-05T13:07:42;11.70;98.00
4505;DHT22;2265;48.794;9.520;2023-01-05T13:10:18;11.70;98.00
4505;DHT22;2265;48.794;9.520;2023-01-05T13:12:52;11.70;98.00
4505;DHT22;2265;48.794;9.520;2023-01-05T13:15:23;11.70;98.00
4505;DHT22;2265;48.794;9.520;2023-01-05T13:17:52;11.60;98.00
4505;DHT22;2265;48.794;9.520;2023-01-05T13:20:27;11.60;98.00
4505;DHT22;2265;48.794;9.520;2023-01-05T13:23:02;11.70;98.00
4505;DHT22;2265;48.794;9.520;2023-01-05T13:25:38;11.60;98.00
4505;DHT22;2265;48.794;9.520;2023-01-05T13:28:17;11.60;98.00
4505;DHT22;2265;48.794;9.520;2023-01-05T13:30:52;11.70;98.00
4505;DHT22;2265;48.794;9.520;2023-01-05T13:33:35;11.70;98.00
4505;DHT22;2265;48.794;9.520;2023-01-05T13:36:14;11.70;98.00
4505;DHT22;2265;48.794;9.520;2023-01-05T13:39:09;11.70;98.00
4505;DHT22;2265;48.794;9.520;2023-01-05T13:42:06;11.60;98.00
4505;DHT22;2265;48.794;9.520;2023-01-05T13:47:49;11.60;98.00
4505;DHT22;2265;48.794;9.520;2023-01-05T13:50:31;11.70;98.00
4505;DHT22;2265;48.794;9.520;2023-01-05T13:53:10;11.70;98.00
4505;DHT22;2265;48.794;9.520;2023-01-05T13:55:44;11.60;98.00
4505;DHT22;2265;48.794;9.520;2023-01-05T13:58:34;11.70;98.00
4505;DHT22;2265;48.794;9.520;2023-01-05T14:01:04;11.70;98.00
4505;DHT22;2265;48.794;9.520;2023-01-05T14:03:35;11.70;98.00
4505;DHT22;2265;48.794;9.520;2023-01-05T14:06:07;11.70;98.00
4505;DHT22;2265;48.794;9.520;2023-01-05T14:08:47;11.70;98.00
4505;DHT22;2265;48.794;9.520;2023-01-05T14:11:18;11.70;98.00
4505;DHT22;2265;48.794;9.520;2023-01-05T14:13:49;11.80;98.00
4505;DHT22;2265;48.794;9.520;2023-01-05T14:16:48;11.80;98.00
4505;DHT22;2265;48.794;9.520;2023-01-05T14:19:24;11.80;98.00
4505;DHT22;2265;48.794;9.520;2023-01-05T14:22:03;11.80;98.00
4505;DHT22;2265;48.794;9.520;2023-01-05T14:24:33;11.70;98.00
4505;DHT22;2265;48.794;9.520;2023-01-05T14:27:04;11.70;98.00
4505;DHT22;2265;48.794;9.520;2023-01-05T14:32:38;11.70;98.00
4505;DHT22;2265;48.794;9.520;2023-01-05T14:35:17;11.70;98.00
4505;DHT22;2265;48.794;9.520;2023-01-05T14:37:52;11.70;98.00
4505;DHT22;2265;48.794;9.520;2023-01-05T14:40:27;11.60;98.00
4505;DHT22;2265;48.794;9.520;2023-01-05T14:42:56;11.70;98.00
4505;DHT22;2265;48.794;9.520;2023-01-05T14:45:28;11.70;98.00
4505;DHT22;2265;48.794;9.520;2023-01-05T14:47:58;11.70;98.00
4505;DHT22;2265;48.794;9.520;2023-01-05T14:50:31;11.70;98.00
4505;DHT22;2265;48.794;9.520;2023-01-05T14:53:02;11.70;98.00
4505;DHT22;2265;48.794;9.520;2023-01-05T14:55:31;11.60;98.00
4505;DHT22;2265;48.794;9.520;2023-01-05T14:58:00;11.70;98.00
4505;DHT22;2265;48.794;9.520;2023-01-05T15:00:47;11.70;98.00
4505;DHT22;2265;48.794;9.520;2023-01-05T15:03:24;11.70;98.00
4505;DHT22;2265;48.794;9.520;2023-01-05T15:06:05;11.70;98.00
4505;DHT22;2265;48.794;9.520;2023-01-05T15:12:16;11.70;98.00
4505;DHT22;2265;48.794;9.520;2023-01-05T15:21:27;11.60;98.00
4505;DHT22;2265;48.794;9.520;2023-01-05T15:24:30;11.50;98.00
4505;DHT22;2265;48.794;9.520;2023-01-05T15:27:24;11.60;98.00
4505;DHT22;2265;48.794;9.520;2023-01-05T15:30:09;11.70;98.00
4505;DHT22;2265;48.794;9.520;2023-01-05T15:32:42;11.60;98.00
4505;DHT22;2265;48.794;9.520;2023-01-05T15:35:14;11.50;98.00
4505;DHT22;2265;48.794;9.520;2023-01-05T15:37:44;11.60;98.00
4505;DHT22;2265;48.794;9.520;2023-01-05T15:40:26;11.50;98.00
4505;DHT22;2265;48.794;9.520;2023-01-05T15:42:56;11.50;98.00
4505;DHT22;2265;48.794;9.520;2023-01-05T15:45:25;11.50;98.00
4505;DHT22;2265;48.794;9.520;2023-01-05T15:47:54;11.50;98.00
4505;DHT22;2265;48.794;9.520;2023-01-05T15:50:23;11.60;98.00
4505;DHT22;2265;48.794;9.520;2023-01-05T15:52:55;11.50;98.00
4505;DHT22;2265;48.794;9.520;2023-01-05T15:55:23;11.60;98.00
4505;DHT22;2265;48.794;9.520;2023-01-05T15:57:52;11.60;98.00
4505;DHT22;2265;48.794;9.520;2023-01-05T16:00:22;11.60;98.00
4505;DHT22;2265;48.794;9.520;2023-01-05T16:02:50;11.70;98.00
4505;DHT22;2265;48.794;9.520;2023-01-05T16:05:18;11.70;98.00
4505;DHT22;2265;48.794;9.520;2023-01-05T16:07:53;11.70;98.00
4505;DHT22;2265;48.794;9.520;2023-01-05T16:10:27;11.70;98.00
4505;DHT22;2265;48.794;9.520;2023-01-05T16:12:59;11.50;98.00
4505;DHT22;2265;48.794;9.520;2023-01-05T16:15:30;11.50;98.00
4505;DHT22;2265;48.794;9.520;2023-01-05T16:17:59;11.50;98.00
4505;DHT22;2265;48.794;9.520;2023-01-05T16:20:26;11.50;98.00
4505;DHT22;2265;48.794;9.520;2023-01-05T16:22:58;11.50;98.00
4505;DHT22;2265;48.794;9.520;2023-01-05T16:25:28;11.50;98.00
4505;DHT22;2265;48.794;9.520;2023-01-05T16:28:01;11.50;98.00
4505;DHT22;2265;48.794;9.520;2023-01-05T16:30:32;11.50;98.00
4505;DHT22;2265;48.794;9.520;2023-01-05T16:33:01;11.50;98.00
4505;DHT22;2265;48.794;9.520;2023-01-05T16:35:33;11.40;98.00
4505;DHT22;2265;48.794;9.520;2023-01-05T16:38:16;11.30;98.00
4505;DHT22;2265;48.794;9.520;2023-01-05T16:41:07;11.40;98.00
4505;DHT22;2265;48.794;9.520;2023-01-05T16:43:39;11.40;98.00
4505;DHT22;2265;48.794;9.520;2023-01-05T16:46:28;11.40;98.00
4505;DHT22;2265;48.794;9.520;2023-01-05T16:48:58;11.30;98.00
4505;DHT22;2265;48.794;9.520;2023-01-05T16:51:37;11.30;98.00
4505;DHT22;2265;48.794;9.520;2023-01-05T16:54:09;11.40;98.00
4505;DHT22;2265;48.794;9.520;2023-01-05T16:56:56;11.30;98.00